createdAt,value
2022-10-18T00:00:57.634Z,5.83
2022-10-18T00:04:01.362Z,5.67
2022-10-18T00:07:04.498Z,5.71
2022-10-18T00:10:08.886Z,5.66
2022-10-18T00:13:12.317Z,5.65
2022-10-18T00:16:25.752Z,5.60
2022-10-18T00:19:29.476Z,5.57
2022-10-18T00:22:36.706Z,5.53
2022-10-18T00:25:39.650Z,5.52
2022-10-18T00:28:45.045Z,5.49
2022-10-18T00:31:49.393Z,5.56
2022-10-18T00:34:53.137Z,5.59
2022-10-18T00:37:56.188Z,5.59
2022-10-18T00:40:59.450Z,5.64
2022-10-18T00:44:04.794Z,5.58
2022-10-18T00:47:11.198Z,5.53
2022-10-18T00:50:14.709Z,5.45
2022-10-18T00:53:21.664Z,5.46
2022-10-18T00:56:25.172Z,5.41
2022-10-18T00:59:29.410Z,5.38
2022-10-18T01:02:33.131Z,5.40
2022-10-18T01:05:48.823Z,5.38
2022-10-18T01:09:05.635Z,5.30
2022-10-18T01:12:30.195Z,5.31
2022-10-18T01:15:33.075Z,5.30
2022-10-18T01:18:44.935Z,5.34
2022-10-18T01:21:57.735Z,5.33
2022-10-18T01:25:23.911Z,5.34
2022-10-18T01:29:00.538Z,5.29
2022-10-18T01:32:10.159Z,5.22
2022-10-18T01:35:22.624Z,5.18
2022-10-18T01:38:26.804Z,5.14
2022-10-18T01:41:30.986Z,5.11
2022-10-18T01:44:35.866Z,5.09
2022-10-18T01:47:41.506Z,5.02
2022-10-18T01:50:45.032Z,5.07
2022-10-18T01:53:48.663Z,5.03
2022-10-18T01:57:03.986Z,5.02
2022-10-18T02:00:15.066Z,5.05
2022-10-18T02:03:28.301Z,5.00
2022-10-18T02:06:38.544Z,4.92
2022-10-18T02:09:51.659Z,4.89
2022-10-18T02:12:57.390Z,4.84
2022-10-18T02:16:07.952Z,4.80
2022-10-18T02:19:22.828Z,4.78
2022-10-18T02:22:30.498Z,4.72
2022-10-18T02:25:35.653Z,4.68
2022-10-18T02:28:39.837Z,4.64
2022-10-18T02:31:50.318Z,4.61
2022-10-18T02:35:01.988Z,4.65
2022-10-18T02:38:07.617Z,4.61
2022-10-18T02:41:10.780Z,4.62
2022-10-18T02:44:13.767Z,4.59
2022-10-18T02:47:16.847Z,4.55
2022-10-18T02:50:23.515Z,4.50
2022-10-18T02:53:27.170Z,4.46
2022-10-18T02:56:30.273Z,4.40
2022-10-18T02:59:33.855Z,4.42
2022-10-18T03:02:37.641Z,4.44
2022-10-18T03:05:41.406Z,4.43
2022-10-18T03:08:44.477Z,4.43
2022-10-18T03:11:47.850Z,4.45
2022-10-18T03:14:51.069Z,4.47
2022-10-18T03:17:56.408Z,4.46
2022-10-18T03:20:59.514Z,4.47
2022-10-18T03:24:03.697Z,4.43
2022-10-18T03:27:06.817Z,4.44
2022-10-18T03:30:11.977Z,4.41
2022-10-18T03:33:18.694Z,4.47
2022-10-18T03:36:22.132Z,4.41
2022-10-18T03:39:25.291Z,4.39
2022-10-18T03:42:28.858Z,4.37
2022-10-18T03:45:32.024Z,4.32
2022-10-18T03:48:35.722Z,4.24
2022-10-18T03:51:38.799Z,4.23
2022-10-18T03:54:42.155Z,4.28
2022-10-18T03:57:45.088Z,4.24
2022-10-18T04:00:55.408Z,4.28
2022-10-18T04:03:58.804Z,4.31
2022-10-18T04:07:01.854Z,4.33
2022-10-18T04:10:05.662Z,4.30
2022-10-18T04:13:09.261Z,4.23
2022-10-18T04:16:12.958Z,4.28
2022-10-18T04:19:17.302Z,4.21
2022-10-18T04:22:21.177Z,4.18
2022-10-18T04:25:25.221Z,4.10
2022-10-18T04:28:36.094Z,4.11
2022-10-18T04:31:40.140Z,4.12
2022-10-18T04:37:51.466Z,4.10
2022-10-18T04:40:55.041Z,3.97
2022-10-18T04:43:58.222Z,4.04
2022-10-18T04:47:01.526Z,4.05
2022-10-18T04:50:05.689Z,4.06
2022-10-18T04:53:09.024Z,4.05
2022-10-18T04:56:12.450Z,4.04
2022-10-18T04:59:15.775Z,4.06
2022-10-18T05:02:43.587Z,4.05
2022-10-18T05:06:01.309Z,4.06
2022-10-18T05:09:06.824Z,4.00
2022-10-18T05:12:10.117Z,3.96
2022-10-18T05:15:21.715Z,3.94
2022-10-18T05:18:31.950Z,3.96
2022-10-18T05:21:45.655Z,3.88
2022-10-18T05:25:09.610Z,4.00
2022-10-18T05:28:38.347Z,4.05
2022-10-18T05:31:39.164Z,4.04
2022-10-18T05:34:43.026Z,4.09
2022-10-18T05:37:46.551Z,4.09
2022-10-18T05:40:54.331Z,4.10
2022-10-18T05:44:02.644Z,4.12
2022-10-18T05:47:08.113Z,4.22
2022-10-18T05:50:14.479Z,4.25
2022-10-18T05:53:35.693Z,4.34
2022-10-18T05:56:42.294Z,4.41
2022-10-18T05:59:47.579Z,4.44
2022-10-18T06:02:52.452Z,4.47
2022-10-18T06:06:06.234Z,4.72
2022-10-18T06:09:09.643Z,5.18
2022-10-18T06:12:13.419Z,5.69
2022-10-18T06:15:16.680Z,6.02
2022-10-18T06:18:20.157Z,6.35
2022-10-18T06:21:25.117Z,6.63
2022-10-18T06:24:28.768Z,6.85
2022-10-18T06:27:34.620Z,7.10
2022-10-18T06:30:38.468Z,7.33
2022-10-18T06:33:42.152Z,7.34
2022-10-18T06:36:45.562Z,7.49
2022-10-18T06:39:48.530Z,7.80
2022-10-18T06:43:00.231Z,8.14
2022-10-18T06:46:10.752Z,8.45
2022-10-18T06:49:16.734Z,8.84
2022-10-18T06:52:25.738Z,9.08
2022-10-18T06:55:31.484Z,9.36
2022-10-18T06:58:35.450Z,9.63
2022-10-18T07:01:39.082Z,9.96
2022-10-18T07:04:44.277Z,9.97
2022-10-18T07:07:47.517Z,10.12
2022-10-18T07:10:52.944Z,10.52
2022-10-18T07:14:05.062Z,10.87
2022-10-18T07:17:08.134Z,10.97
2022-10-18T07:20:13.089Z,10.89
2022-10-18T07:23:16.501Z,10.92
2022-10-18T07:26:25.739Z,10.88
2022-10-18T07:29:29.639Z,11.10
2022-10-18T07:32:32.972Z,11.09
2022-10-18T07:35:36.004Z,11.02
2022-10-18T07:38:40.055Z,11.00
2022-10-18T07:41:43.209Z,11.01
2022-10-18T07:44:46.654Z,11.07
2022-10-18T07:47:55.015Z,11.15
2022-10-18T07:51:00.986Z,11.29
2022-10-18T07:54:04.256Z,11.46
2022-10-18T07:57:07.609Z,11.66
2022-10-18T08:00:11.740Z,11.83
2022-10-18T08:03:14.674Z,12.01
2022-10-18T08:06:19.637Z,12.13
2022-10-18T08:09:22.701Z,12.26
2022-10-18T08:12:26.014Z,12.46
2022-10-18T08:15:29.130Z,12.78
2022-10-18T08:18:36.517Z,13.37
2022-10-18T08:21:39.522Z,14.03
2022-10-18T08:24:43.992Z,14.63
2022-10-18T08:27:47.149Z,15.27
2022-10-18T08:30:52.292Z,15.71
2022-10-18T08:34:00.508Z,15.93
2022-10-18T08:37:03.738Z,16.10
2022-10-18T08:40:11.994Z,16.65
2022-10-18T08:43:33.966Z,16.82
2022-10-18T08:46:41.380Z,17.30
2022-10-18T08:50:00.826Z,17.53
2022-10-18T08:53:24.154Z,17.85
2022-10-18T08:56:27.746Z,18.06
2022-10-18T08:59:41.809Z,18.11
2022-10-18T09:03:13.160Z,17.68
2022-10-18T09:06:33.032Z,17.51
2022-10-18T09:09:45.265Z,17.07
2022-10-18T09:13:04.157Z,17.04
2022-10-18T09:16:23.147Z,17.16
2022-10-18T09:19:43.714Z,17.43
2022-10-18T09:23:13.212Z,17.62
2022-10-18T09:26:22.682Z,18.53
2022-10-18T09:29:29.886Z,18.52
2022-10-18T09:32:53.658Z,18.76
2022-10-18T09:36:08.150Z,19.00
2022-10-18T09:39:23.915Z,18.95
2022-10-18T09:42:39.862Z,19.11
2022-10-18T09:45:45.892Z,19.04
2022-10-18T09:48:58.829Z,19.10
2022-10-18T09:52:08.446Z,19.16
2022-10-18T09:55:28.871Z,19.40
2022-10-18T09:58:46.395Z,19.44
2022-10-18T10:01:49.599Z,20.08
2022-10-18T10:04:57.092Z,20.12
2022-10-18T10:08:02.301Z,20.13
2022-10-18T10:11:05.779Z,20.44
2022-10-18T10:17:26.484Z,20.51
2022-10-18T10:20:50.616Z,20.32
2022-10-18T10:23:58.010Z,20.33
2022-10-18T10:27:07.222Z,20.20
2022-10-18T10:30:39.858Z,20.47
2022-10-18T10:33:47.004Z,20.23
2022-10-18T10:36:52.548Z,20.27
2022-10-18T10:40:20.536Z,20.50
2022-10-18T10:43:39.205Z,21.16
2022-10-18T10:46:43.635Z,21.53
2022-10-18T10:49:47.968Z,21.28
2022-10-18T10:52:51.677Z,21.15
2022-10-18T10:55:57.968Z,21.37
2022-10-18T10:59:09.166Z,21.03
2022-10-18T11:02:18.339Z,21.11
2022-10-18T11:05:27.211Z,21.31
2022-10-18T11:08:39.266Z,21.38
2022-10-18T11:11:55.292Z,21.48
2022-10-18T11:15:20.907Z,21.40
2022-10-18T11:18:33.689Z,21.73
2022-10-18T11:21:38.345Z,21.60
2022-10-18T11:24:41.766Z,21.37
2022-10-18T11:27:53.350Z,21.60
2022-10-18T11:31:33.635Z,21.45
2022-10-18T11:34:57.491Z,21.42
2022-10-18T11:38:24.314Z,21.37
2022-10-18T11:41:48.515Z,21.49
2022-10-18T11:45:08.480Z,21.93
2022-10-18T11:48:37.242Z,21.91
2022-10-18T11:52:07.894Z,22.09
2022-10-18T11:55:32.990Z,21.55
2022-10-18T11:59:07.693Z,21.82
2022-10-18T12:02:17.044Z,22.15
2022-10-18T12:05:23.989Z,22.19
2022-10-18T12:08:36.678Z,22.14
2022-10-18T12:14:55.682Z,21.66
2022-10-18T12:18:03.744Z,21.30
2022-10-18T12:21:07.404Z,21.20
2022-10-18T12:24:19.950Z,21.33
2022-10-18T12:27:35.717Z,21.56
2022-10-18T12:31:17.902Z,21.95
2022-10-18T12:34:24.170Z,21.62
2022-10-18T12:37:58.685Z,21.65
2022-10-18T12:41:03.045Z,21.65
2022-10-18T12:44:18.137Z,21.61
2022-10-18T12:47:25.949Z,21.72
2022-10-18T12:50:36.887Z,21.76
2022-10-18T12:53:42.111Z,21.71
2022-10-18T12:56:46.914Z,21.92
2022-10-18T12:59:50.190Z,21.83
2022-10-18T13:03:19.173Z,21.75
2022-10-18T13:06:23.760Z,21.92
2022-10-18T13:09:37.545Z,21.85
2022-10-18T13:12:43.840Z,21.52
2022-10-18T13:15:54.020Z,21.64
2022-10-18T13:19:03.443Z,21.52
2022-10-18T13:22:33.911Z,21.50
2022-10-18T13:26:14.476Z,21.81
2022-10-18T13:29:36.393Z,21.78
2022-10-18T13:33:13.576Z,21.75
2022-10-18T13:36:21.798Z,21.66
2022-10-18T13:39:27.231Z,21.71
2022-10-18T13:42:33.385Z,21.51
2022-10-18T13:45:53.084Z,21.45
2022-10-18T13:49:20.272Z,21.37
2022-10-18T13:52:54.004Z,21.10
2022-10-18T13:56:36.115Z,21.09
2022-10-18T14:00:10.387Z,20.90
2022-10-18T14:07:03.975Z,20.33
2022-10-18T14:10:43.252Z,20.09
2022-10-18T14:13:52.424Z,19.93
2022-10-18T14:17:15.386Z,19.61
2022-10-18T14:20:29.544Z,19.44
2022-10-18T14:23:37.150Z,19.16
2022-10-18T14:26:40.548Z,18.90
2022-10-18T14:29:44.203Z,18.78
2022-10-18T14:32:54.722Z,18.60
2022-10-18T14:36:15.562Z,18.32
2022-10-18T14:39:24.196Z,18.33
2022-10-18T14:42:28.616Z,18.04
2022-10-18T14:45:31.878Z,17.74
2022-10-18T14:48:35.322Z,17.52
2022-10-18T14:51:42.422Z,17.34
2022-10-18T14:54:45.918Z,17.29
2022-10-18T14:57:49.481Z,17.06
2022-10-18T15:00:55.006Z,16.76
2022-10-18T15:04:01.028Z,16.53
2022-10-18T15:07:07.499Z,16.29
2022-10-18T15:10:18.266Z,16.09
2022-10-18T15:13:22.001Z,15.87
2022-10-18T15:16:31.059Z,15.58
2022-10-18T15:19:42.976Z,15.37
2022-10-18T15:22:47.002Z,15.26
2022-10-18T15:26:00.812Z,14.99
2022-10-18T15:29:06.828Z,14.82
2022-10-18T15:32:26.499Z,14.57
2022-10-18T15:35:29.939Z,14.36
2022-10-18T15:38:33.196Z,14.10
2022-10-18T15:41:38.701Z,13.95
2022-10-18T15:44:53.666Z,13.72
2022-10-18T15:48:06.169Z,13.41
2022-10-18T15:51:32.715Z,13.26
2022-10-18T15:54:36.314Z,13.03
2022-10-18T15:57:39.342Z,12.89
2022-10-18T16:00:46.166Z,12.72
2022-10-18T16:03:51.520Z,12.57
2022-10-18T16:06:56.110Z,12.42
2022-10-18T16:10:00.422Z,12.16
2022-10-18T16:13:03.478Z,12.03
2022-10-18T16:16:07.416Z,11.87
2022-10-18T16:19:15.745Z,11.75
2022-10-18T16:22:19.220Z,11.56
2022-10-18T16:25:22.642Z,11.45
2022-10-18T16:28:26.746Z,11.31
2022-10-18T16:31:33.488Z,11.24
2022-10-18T16:34:37.086Z,11.11
2022-10-18T16:37:41.146Z,10.94
2022-10-18T16:40:44.607Z,10.91
2022-10-18T16:43:49.586Z,10.85
2022-10-18T16:46:56.261Z,10.73
2022-10-18T16:50:05.602Z,10.66
2022-10-18T16:53:12.654Z,10.42
2022-10-18T16:56:19.034Z,10.38
2022-10-18T16:59:32.316Z,10.29
2022-10-18T17:02:35.658Z,10.37
2022-10-18T17:05:40.290Z,10.19
2022-10-18T17:08:43.788Z,10.15
2022-10-18T17:11:47.726Z,9.92
2022-10-18T17:14:51.434Z,10.02
2022-10-18T17:17:54.995Z,9.67
2022-10-18T17:21:02.962Z,9.85
2022-10-18T17:24:06.826Z,9.86
2022-10-18T17:27:12.179Z,9.72
2022-10-18T17:30:18.208Z,9.62
2022-10-18T17:33:22.786Z,9.24
2022-10-18T17:36:28.009Z,9.41
2022-10-18T17:39:33.654Z,9.35
2022-10-18T17:42:38.867Z,9.20
2022-10-18T17:45:56.449Z,8.99
2022-10-18T17:49:00.438Z,9.08
2022-10-18T17:52:06.913Z,9.11
2022-10-18T17:55:12.011Z,8.73
2022-10-18T17:58:16.229Z,8.96
2022-10-18T18:01:23.373Z,8.88
2022-10-18T18:04:28.413Z,8.91
2022-10-18T18:07:32.220Z,8.85
2022-10-18T18:10:36.663Z,8.82
2022-10-18T18:13:40.629Z,8.89
2022-10-18T18:16:47.332Z,8.82
2022-10-18T18:19:51.470Z,8.84
2022-10-18T18:22:55.913Z,8.77
2022-10-18T18:26:00.563Z,8.65
2022-10-18T18:29:05.770Z,8.54
2022-10-18T18:32:10.084Z,8.39
2022-10-18T18:35:15.529Z,8.01
2022-10-18T18:38:20.657Z,8.28
2022-10-18T18:41:27.102Z,8.20
2022-10-18T18:44:34.304Z,8.09
2022-10-18T18:47:39.366Z,8.03
2022-10-18T18:50:51.862Z,8.08
2022-10-18T18:53:55.981Z,8.03
2022-10-18T18:57:01.649Z,7.69
2022-10-18T19:00:07.507Z,7.90
2022-10-18T19:03:12.353Z,7.88
2022-10-18T19:06:20.353Z,7.82
2022-10-18T19:09:40.639Z,7.69
2022-10-18T19:13:13.974Z,7.66
2022-10-18T19:16:28.930Z,7.59
2022-10-18T19:19:33.765Z,7.48
2022-10-18T19:22:39.260Z,7.39
2022-10-18T19:25:46.241Z,7.38
2022-10-18T19:28:50.527Z,7.32
2022-10-18T19:31:58.231Z,7.22
2022-10-18T19:35:03.624Z,7.21
2022-10-18T19:38:07.724Z,7.23
2022-10-18T19:41:12.463Z,7.15
2022-10-18T19:44:17.905Z,7.03
2022-10-18T19:47:22.778Z,7.07
2022-10-18T19:50:28.606Z,7.00
2022-10-18T19:53:34.223Z,7.15
2022-10-18T19:56:43.124Z,7.16
2022-10-18T19:59:48.941Z,7.14
2022-10-18T20:02:54.305Z,7.31
2022-10-18T20:05:59.672Z,7.24
2022-10-18T20:09:03.562Z,7.19
2022-10-18T20:12:07.131Z,7.08
2022-10-18T20:15:10.813Z,7.04
2022-10-18T20:18:14.715Z,6.94
2022-10-18T20:21:18.037Z,6.79
2022-10-18T20:24:21.427Z,6.68
2022-10-18T20:27:24.825Z,6.57
2022-10-18T20:30:29.006Z,6.55
2022-10-18T20:33:35.123Z,6.51
2022-10-18T20:36:39.851Z,6.50
2022-10-18T20:39:43.380Z,6.50
2022-10-18T20:42:46.917Z,6.35
2022-10-18T20:45:56.831Z,6.37
2022-10-18T20:49:00.683Z,6.39
2022-10-18T20:52:04.086Z,6.35
2022-10-18T20:55:07.866Z,6.38
2022-10-18T20:58:12.040Z,6.28
2022-10-18T21:01:17.445Z,6.26
2022-10-18T21:04:21.161Z,6.20
2022-10-18T21:07:24.656Z,6.14
2022-10-18T21:10:30.150Z,6.08
2022-10-18T21:13:33.848Z,6.05
2022-10-18T21:16:38.558Z,6.10
2022-10-18T21:19:43.638Z,6.03
2022-10-18T21:22:46.765Z,5.97
2022-10-18T21:25:51.174Z,5.91
2022-10-18T21:29:00.694Z,5.91
2022-10-18T21:32:03.832Z,5.93
2022-10-18T21:35:08.237Z,5.99
2022-10-18T21:38:11.495Z,6.05
2022-10-18T21:41:18.143Z,6.15
2022-10-18T21:44:21.572Z,6.27
2022-10-18T21:47:24.806Z,6.42
2022-10-18T21:50:28.207Z,6.56
2022-10-18T21:53:31.545Z,6.61
2022-10-18T21:56:35.629Z,6.59
2022-10-18T21:59:38.796Z,6.66
2022-10-18T22:02:42.179Z,6.72
2022-10-18T22:05:45.439Z,6.79
2022-10-18T22:08:55.123Z,6.87
2022-10-18T22:11:59.146Z,6.94
2022-10-18T22:15:02.785Z,7.00
2022-10-18T22:18:07.086Z,7.07
2022-10-18T22:21:12.279Z,7.08
2022-10-18T22:24:15.685Z,7.12
2022-10-18T22:27:18.888Z,7.11
2022-10-18T22:30:22.655Z,7.05
2022-10-18T22:33:29.333Z,7.07
2022-10-18T22:36:34.623Z,7.05
2022-10-18T22:39:39.069Z,7.05
2022-10-18T22:42:42.449Z,6.99
2022-10-18T22:45:46.441Z,7.09
2022-10-18T22:48:50.178Z,7.07
2022-10-18T22:51:53.362Z,7.15
2022-10-18T22:54:57.040Z,7.14
2022-10-18T22:58:00.049Z,7.08
2022-10-18T23:01:09.844Z,7.15
2022-10-18T23:04:12.972Z,7.18
2022-10-18T23:07:16.412Z,7.21
2022-10-18T23:10:19.526Z,7.21
2022-10-18T23:13:24.301Z,7.19
2022-10-18T23:16:27.626Z,7.15
2022-10-18T23:19:30.994Z,7.11
2022-10-18T23:22:34.367Z,7.04
2022-10-18T23:25:38.710Z,6.99
2022-10-18T23:28:44.414Z,6.88
2022-10-18T23:31:47.805Z,6.80
2022-10-18T23:34:52.194Z,6.70
2022-10-18T23:37:55.695Z,6.62
2022-10-18T23:41:01.163Z,6.57
2022-10-18T23:44:04.601Z,6.46
2022-10-18T23:47:08.127Z,6.41
2022-10-18T23:50:15.005Z,6.37
2022-10-18T23:53:23.211Z,6.29
2022-10-18T23:56:26.625Z,6.22
2022-10-18T23:59:31.131Z,6.12
